sensor_id;sensor_type;location;lat;lon;timestamp;P1;durP1;ratioP1;P2;durP2;ratioP2
13588;SDS011;6865;52.552;13.434;2023-03-19T00:00:41;12.37;;;8.30;;
13588;SDS011;6865;52.552;13.434;2023-03-19T00:03:07;12.07;;;8.00;;
13588;SDS011;6865;52.552;13.434;2023-03-19T00:05:34;13.40;;;8.53;;
13588;SDS011;6865;52.552;13.434;2023-03-19T00:08:01;16.47;;;9.87;;
13588;SDS011;6865;52.552;13.434;2023-03-19T00:10:28;16.30;;;9.47;;
13588;SDS011;6865;52.552;13.434;2023-03-19T00:12:54;14.73;;;9.53;;
13588;SDS011;6865;52.552;13.434;2023-03-19T00:15:21;14.43;;;10.17;;
13588;SDS011;6865;52.552;13.434;2023-03-19T00:17:48;14.57;;;10.40;;
13588;SDS011;6865;52.552;13.434;2023-03-19T00:20:15;13.53;;;9.83;;
13588;SDS011;6865;52.552;13.434;2023-03-19T00:22:43;13.63;;;9.73;;
13588;SDS011;6865;52.552;13.434;2023-03-19T00:25:10;11.63;;;8.97;;
13588;SDS011;6865;52.552;13.434;2023-03-19T00:27:36;12.90;;;8.90;;
13588;SDS011;6865;52.552;13.434;2023-03-19T00:30:07;13.07;;;9.37;;
13588;SDS011;6865;52.552;13.434;2023-03-19T00:32:34;13.60;;;9.40;;
13588;SDS011;6865;52.552;13.434;2023-03-19T00:35:02;13.20;;;9.60;;
13588;SDS011;6865;52.552;13.434;2023-03-19T00:37:31;14.57;;;10.03;;
13588;SDS011;6865;52.552;13.434;2023-03-19T00:39:58;16.97;;;10.23;;
13588;SDS011;6865;52.552;13.434;2023-03-19T00:42:24;13.83;;;10.10;;
13588;SDS011;6865;52.552;13.434;2023-03-19T00:44:52;12.50;;;9.13;;
13588;SDS011;6865;52.552;13.434;2023-03-19T00:47:22;16.53;;;9.97;;
13588;SDS011;6865;52.552;13.434;2023-03-19T00:49:49;15.87;;;10.30;;
13588;SDS011;6865;52.552;13.434;2023-03-19T00:52:16;14.00;;;9.57;;
13588;SDS011;6865;52.552;13.434;2023-03-19T00:54:42;17.83;;;12.57;;
13588;SDS011;6865;52.552;13.434;2023-03-19T00:57:09;18.10;;;12.07;;
13588;SDS011;6865;52.552;13.434;2023-03-19T00:59:37;17.67;;;11.90;;
13588;SDS011;6865;52.552;13.434;2023-03-19T01:02:04;17.87;;;11.20;;
13588;SDS011;6865;52.552;13.434;2023-03-19T01:04:31;16.70;;;11.07;;
13588;SDS011;6865;52.552;13.434;2023-03-19T01:06:57;17.30;;;10.53;;
13588;SDS011;6865;52.552;13.434;2023-03-19T01:09:24;15.07;;;11.03;;
13588;SDS011;6865;52.552;13.434;2023-03-19T01:11:51;16.30;;;10.10;;
13588;SDS011;6865;52.552;13.434;2023-03-19T01:14:17;12.73;;;9.53;;
13588;SDS011;6865;52.552;13.434;2023-03-19T01:16:44;15.23;;;9.60;;
13588;SDS011;6865;52.552;13.434;2023-03-19T01:19:11;14.80;;;9.50;;
13588;SDS011;6865;52.552;13.434;2023-03-19T01:21:38;18.13;;;10.30;;
13588;SDS011;6865;52.552;13.434;2023-03-19T01:24:05;15.20;;;9.80;;
13588;SDS011;6865;52.552;13.434;2023-03-19T01:26:31;14.50;;;9.77;;
13588;SDS011;6865;52.552;13.434;2023-03-19T01:28:58;14.43;;;10.17;;
13588;SDS011;6865;52.552;13.434;2023-03-19T01:31:25;16.50;;;10.23;;
13588;SDS011;6865;52.552;13.434;2023-03-19T01:33:52;13.50;;;9.70;;
13588;SDS011;6865;52.552;13.434;2023-03-19T01:36:18;15.50;;;10.17;;
13588;SDS011;6865;52.552;13.434;2023-03-19T01:38:45;13.70;;;10.10;;
13588;SDS011;6865;52.552;13.434;2023-03-19T01:41:12;17.07;;;10.50;;
13588;SDS011;6865;52.552;13.434;2023-03-19T01:43:38;14.43;;;9.37;;
13588;SDS011;6865;52.552;13.434;2023-03-19T01:46:06;16.70;;;9.97;;
13588;SDS011;6865;52.552;13.434;2023-03-19T01:48:43;13.10;;;9.80;;
13588;SDS011;6865;52.552;13.434;2023-03-19T01:51:14;17.47;;;10.63;;
13588;SDS011;6865;52.552;13.434;2023-03-19T01:53:44;13.33;;;10.27;;
13588;SDS011;6865;52.552;13.434;2023-03-19T01:56:15;17.13;;;9.67;;
13588;SDS011;6865;52.552;13.434;2023-03-19T01:58:46;15.33;;;10.07;;
13588;SDS011;6865;52.552;13.434;2023-03-19T02:01:16;14.87;;;10.13;;
13588;SDS011;6865;52.552;13.434;2023-03-19T02:03:44;14.63;;;9.40;;
13588;SDS011;6865;52.552;13.434;2023-03-19T02:06:11;12.93;;;9.47;;
13588;SDS011;6865;52.552;13.434;2023-03-19T02:08:39;15.30;;;10.63;;
13588;SDS011;6865;52.552;13.434;2023-03-19T02:11:07;13.40;;;9.37;;
13588;SDS011;6865;52.552;13.434;2023-03-19T02:13:34;18.87;;;10.00;;
13588;SDS011;6865;52.552;13.434;2023-03-19T02:16:01;15.87;;;10.47;;
13588;SDS011;6865;52.552;13.434;2023-03-19T02:18:29;15.90;;;10.20;;
13588;SDS011;6865;52.552;13.434;2023-03-19T02:21:02;15.03;;;10.10;;
13588;SDS011;6865;52.552;13.434;2023-03-19T02:26:12;14.80;;;9.70;;
13588;SDS011;6865;52.552;13.434;2023-03-19T02:28:42;14.97;;;10.50;;
13588;SDS011;6865;52.552;13.434;2023-03-19T02:31:11;13.93;;;10.00;;
13588;SDS011;6865;52.552;13.434;2023-03-19T02:33:38;13.63;;;10.17;;
13588;SDS011;6865;52.552;13.434;2023-03-19T02:36:08;18.30;;;10.07;;
13588;SDS011;6865;52.552;13.434;2023-03-19T02:38:38;12.70;;;9.83;;
13588;SDS011;6865;52.552;13.434;2023-03-19T02:41:08;14.07;;;9.37;;
13588;SDS011;6865;52.552;13.434;2023-03-19T02:43:37;13.97;;;9.37;;
13588;SDS011;6865;52.552;13.434;2023-03-19T02:46:07;13.97;;;9.63;;
13588;SDS011;6865;52.552;13.434;2023-03-19T02:48:37;13.17;;;10.17;;
13588;SDS011;6865;52.552;13.434;2023-03-19T02:51:04;13.33;;;9.47;;
13588;SDS011;6865;52.552;13.434;2023-03-19T02:53:30;13.63;;;9.57;;
13588;SDS011;6865;52.552;13.434;2023-03-19T02:55:59;12.53;;;9.37;;
13588;SDS011;6865;52.552;13.434;2023-03-19T02:58:26;14.87;;;10.57;;
13588;SDS011;6865;52.552;13.434;2023-03-19T03:00:53;13.37;;;9.70;;
13588;SDS011;6865;52.552;13.434;2023-03-19T03:03:20;14.50;;;10.30;;
13588;SDS011;6865;52.552;13.434;2023-03-19T03:05:47;15.07;;;10.30;;
13588;SDS011;6865;52.552;13.434;2023-03-19T03:08:13;13.63;;;9.77;;
13588;SDS011;6865;52.552;13.434;2023-03-19T03:10:40;15.43;;;9.70;;
13588;SDS011;6865;52.552;13.434;2023-03-19T03:13:07;13.73;;;9.50;;
13588;SDS011;6865;52.552;13.434;2023-03-19T03:15:34;13.90;;;9.53;;
13588;SDS011;6865;52.552;13.434;2023-03-19T03:18:01;14.37;;;9.93;;
13588;SDS011;6865;52.552;13.434;2023-03-19T03:20:27;13.30;;;9.60;;
13588;SDS011;6865;52.552;13.434;2023-03-19T03:22:54;13.10;;;9.27;;
13588;SDS011;6865;52.552;13.434;2023-03-19T03:25:21;12.73;;;9.03;;
13588;SDS011;6865;52.552;13.434;2023-03-19T03:27:47;13.40;;;10.13;;
13588;SDS011;6865;52.552;13.434;2023-03-19T03:30:14;15.50;;;9.50;;
13588;SDS011;6865;52.552;13.434;2023-03-19T03:32:42;16.10;;;9.90;;
13588;SDS011;6865;52.552;13.434;2023-03-19T03:35:09;13.00;;;9.33;;
13588;SDS011;6865;52.552;13.434;2023-03-19T03:37:35;11.73;;;8.93;;
13588;SDS011;6865;52.552;13.434;2023-03-19T03:40:04;14.13;;;9.10;;
13588;SDS011;6865;52.552;13.434;2023-03-19T03:42:35;14.83;;;9.23;;
13588;SDS011;6865;52.552;13.434;2023-03-19T03:45:02;13.33;;;9.40;;
13588;SDS011;6865;52.552;13.434;2023-03-19T03:47:29;15.50;;;10.10;;
13588;SDS011;6865;52.552;13.434;2023-03-19T03:49:56;15.07;;;9.90;;
13588;SDS011;6865;52.552;13.434;2023-03-19T03:52:23;14.37;;;10.13;;
13588;SDS011;6865;52.552;13.434;2023-03-19T03:54:49;14.27;;;9.90;;
13588;SDS011;6865;52.552;13.434;2023-03-19T03:57:16;14.67;;;10.07;;
13588;SDS011;6865;52.552;13.434;2023-03-19T03:59:42;15.87;;;10.50;;
13588;SDS011;6865;52.552;13.434;2023-03-19T04:02:09;13.83;;;9.60;;
13588;SDS011;6865;52.552;13.434;2023-03-19T04:04:36;13.90;;;9.70;;
13588;SDS011;6865;52.552;13.434;2023-03-19T04:07:03;16.03;;;9.77;;
13588;SDS011;6865;52.552;13.434;2023-03-19T04:09:29;13.77;;;9.47;;
13588;SDS011;6865;52.552;13.434;2023-03-19T04:11:56;13.67;;;9.90;;
13588;SDS011;6865;52.552;13.434;2023-03-19T04:14:23;14.47;;;10.47;;
13588;SDS011;6865;52.552;13.434;2023-03-19T04:16:49;16.47;;;10.33;;
13588;SDS011;6865;52.552;13.434;2023-03-19T04:19:17;19.27;;;11.00;;
13588;SDS011;6865;52.552;13.434;2023-03-19T04:21:44;15.90;;;10.87;;
13588;SDS011;6865;52.552;13.434;2023-03-19T04:24:11;13.80;;;10.63;;
13588;SDS011;6865;52.552;13.434;2023-03-19T04:26:38;16.70;;;10.70;;
13588;SDS011;6865;52.552;13.434;2023-03-19T04:29:05;17.33;;;10.97;;
13588;SDS011;6865;52.552;13.434;2023-03-19T04:31:33;15.53;;;10.73;;
13588;SDS011;6865;52.552;13.434;2023-03-19T04:34:00;15.47;;;10.07;;
13588;SDS011;6865;52.552;13.434;2023-03-19T04:36:27;15.67;;;10.63;;
13588;SDS011;6865;52.552;13.434;2023-03-19T04:38:54;16.57;;;11.20;;
13588;SDS011;6865;52.552;13.434;2023-03-19T04:41:20;15.50;;;10.77;;
13588;SDS011;6865;52.552;13.434;2023-03-19T04:43:47;13.27;;;9.93;;
13588;SDS011;6865;52.552;13.434;2023-03-19T04:46:14;14.27;;;10.70;;
13588;SDS011;6865;52.552;13.434;2023-03-19T04:48:42;14.37;;;10.47;;
13588;SDS011;6865;52.552;13.434;2023-03-19T04:51:08;17.90;;;11.10;;
13588;SDS011;6865;52.552;13.434;2023-03-19T04:53:35;19.37;;;11.40;;
13588;SDS011;6865;52.552;13.434;2023-03-19T04:56:03;15.27;;;10.67;;
13588;SDS011;6865;52.552;13.434;2023-03-19T04:58:30;14.53;;;10.80;;
13588;SDS011;6865;52.552;13.434;2023-03-19T05:00:56;16.17;;;10.67;;
13588;SDS011;6865;52.552;13.434;2023-03-19T05:03:23;15.50;;;11.07;;
13588;SDS011;6865;52.552;13.434;2023-03-19T05:05:51;17.73;;;10.73;;
13588;SDS011;6865;52.552;13.434;2023-03-19T05:08:19;15.90;;;10.70;;
13588;SDS011;6865;52.552;13.434;2023-03-19T05:10:46;15.50;;;11.63;;
13588;SDS011;6865;52.552;13.434;2023-03-19T05:13:12;16.60;;;11.57;;
13588;SDS011;6865;52.552;13.434;2023-03-19T05:15:42;17.63;;;11.53;;
13588;SDS011;6865;52.552;13.434;2023-03-19T05:18:09;15.63;;;11.23;;
13588;SDS011;6865;52.552;13.434;2023-03-19T05:20:37;16.47;;;11.93;;
13588;SDS011;6865;52.552;13.434;2023-03-19T05:23:04;15.47;;;11.30;;
13588;SDS011;6865;52.552;13.434;2023-03-19T05:25:32;16.73;;;12.13;;
13588;SDS011;6865;52.552;13.434;2023-03-19T05:28:00;17.30;;;12.37;;
13588;SDS011;6865;52.552;13.434;2023-03-19T05:30:27;18.87;;;12.40;;
13588;SDS011;6865;52.552;13.434;2023-03-19T05:32:55;15.87;;;12.30;;
13588;SDS011;6865;52.552;13.434;2023-03-19T05:35:23;19.47;;;12.57;;
13588;SDS011;6865;52.552;13.434;2023-03-19T05:37:50;17.87;;;12.50;;
13588;SDS011;6865;52.552;13.434;2023-03-19T05:40:17;17.97;;;13.27;;
13588;SDS011;6865;52.552;13.434;2023-03-19T05:42:43;16.97;;;13.63;;
13588;SDS011;6865;52.552;13.434;2023-03-19T05:45:10;18.17;;;13.40;;
13588;SDS011;6865;52.552;13.434;2023-03-19T05:47:37;19.07;;;13.73;;
13588;SDS011;6865;52.552;13.434;2023-03-19T05:50:05;19.57;;;12.40;;
13588;SDS011;6865;52.552;13.434;2023-03-19T05:52:32;18.33;;;13.40;;
13588;SDS011;6865;52.552;13.434;2023-03-19T05:54:59;16.07;;;12.13;;
13588;SDS011;6865;52.552;13.434;2023-03-19T05:57:26;17.50;;;12.40;;
13588;SDS011;6865;52.552;13.434;2023-03-19T05:59:53;17.07;;;12.00;;
13588;SDS011;6865;52.552;13.434;2023-03-19T06:02:19;14.80;;;11.13;;
13588;SDS011;6865;52.552;13.434;2023-03-19T06:04:46;16.57;;;12.00;;
13588;SDS011;6865;52.552;13.434;2023-03-19T06:07:12;15.40;;;10.90;;
13588;SDS011;6865;52.552;13.434;2023-03-19T06:09:39;15.03;;;11.40;;
13588;SDS011;6865;52.552;13.434;2023-03-19T06:12:06;13.70;;;10.47;;
13588;SDS011;6865;52.552;13.434;2023-03-19T06:14:33;17.00;;;11.70;;
13588;SDS011;6865;52.552;13.434;2023-03-19T06:17:00;16.37;;;10.37;;
13588;SDS011;6865;52.552;13.434;2023-03-19T06:19:26;17.47;;;11.03;;
13588;SDS011;6865;52.552;13.434;2023-03-19T06:21:53;14.50;;;11.03;;
13588;SDS011;6865;52.552;13.434;2023-03-19T06:24:19;14.23;;;10.50;;
13588;SDS011;6865;52.552;13.434;2023-03-19T06:26:46;12.70;;;9.87;;
13588;SDS011;6865;52.552;13.434;2023-03-19T06:29:12;13.53;;;10.57;;
13588;SDS011;6865;52.552;13.434;2023-03-19T06:31:39;11.60;;;9.63;;
13588;SDS011;6865;52.552;13.434;2023-03-19T06:34:06;11.73;;;9.60;;
13588;SDS011;6865;52.552;13.434;2023-03-19T06:36:33;13.43;;;8.37;;
13588;SDS011;6865;52.552;13.434;2023-03-19T06:39:00;11.53;;;8.70;;
13588;SDS011;6865;52.552;13.434;2023-03-19T06:41:28;11.53;;;8.63;;
13588;SDS011;6865;52.552;13.434;2023-03-19T06:43:55;12.57;;;9.30;;
13588;SDS011;6865;52.552;13.434;2023-03-19T06:46:21;12.63;;;9.20;;
13588;SDS011;6865;52.552;13.434;2023-03-19T06:48:49;10.07;;;8.77;;
13588;SDS011;6865;52.552;13.434;2023-03-19T06:51:15;12.67;;;9.17;;
13588;SDS011;6865;52.552;13.434;2023-03-19T06:53:42;11.13;;;8.43;;
13588;SDS011;6865;52.552;13.434;2023-03-19T06:56:09;11.57;;;8.63;;
13588;SDS011;6865;52.552;13.434;2023-03-19T06:58:35;11.83;;;9.27;;
13588;SDS011;6865;52.552;13.434;2023-03-19T07:01:02;11.53;;;8.67;;
13588;SDS011;6865;52.552;13.434;2023-03-19T07:03:29;12.57;;;9.30;;
13588;SDS011;6865;52.552;13.434;2023-03-19T07:05:56;13.40;;;9.97;;
13588;SDS011;6865;52.552;13.434;2023-03-19T07:08:23;11.93;;;8.93;;
13588;SDS011;6865;52.552;13.434;2023-03-19T07:10:55;11.47;;;9.30;;
13588;SDS011;6865;52.552;13.434;2023-03-19T07:13:22;14.77;;;9.60;;
13588;SDS011;6865;52.552;13.434;2023-03-19T07:15:49;12.00;;;9.43;;
13588;SDS011;6865;52.552;13.434;2023-03-19T07:18:15;15.47;;;10.13;;
13588;SDS011;6865;52.552;13.434;2023-03-19T07:20:42;16.47;;;10.57;;
13588;SDS011;6865;52.552;13.434;2023-03-19T07:23:08;11.50;;;10.00;;
13588;SDS011;6865;52.552;13.434;2023-03-19T07:25:35;12.77;;;10.20;;
13588;SDS011;6865;52.552;13.434;2023-03-19T07:28:02;14.63;;;10.10;;
13588;SDS011;6865;52.552;13.434;2023-03-19T07:30:29;13.93;;;10.13;;
13588;SDS011;6865;52.552;13.434;2023-03-19T07:32:55;14.87;;;11.50;;
13588;SDS011;6865;52.552;13.434;2023-03-19T07:35:22;17.60;;;12.37;;
13588;SDS011;6865;52.552;13.434;2023-03-19T07:37:49;12.87;;;11.00;;
13588;SDS011;6865;52.552;13.434;2023-03-19T07:40:15;13.53;;;10.67;;
13588;SDS011;6865;52.552;13.434;2023-03-19T07:42:42;13.93;;;10.33;;
13588;SDS011;6865;52.552;13.434;2023-03-19T07:45:10;13.87;;;9.97;;
13588;SDS011;6865;52.552;13.434;2023-03-19T07:47:37;18.23;;;11.40;;
13588;SDS011;6865;52.552;13.434;2023-03-19T07:50:05;16.30;;;11.90;;
13588;SDS011;6865;52.552;13.434;2023-03-19T07:52:32;14.73;;;12.00;;
13588;SDS011;6865;52.552;13.434;2023-03-19T07:54:58;17.27;;;11.47;;
13588;SDS011;6865;52.552;13.434;2023-03-19T07:57:25;15.93;;;11.77;;
13588;SDS011;6865;52.552;13.434;2023-03-19T07:59:52;17.47;;;13.27;;
13588;SDS011;6865;52.552;13.434;2023-03-19T08:02:19;19.23;;;13.73;;
13588;SDS011;6865;52.552;13.434;2023-03-19T08:04:48;17.63;;;13.60;;
13588;SDS011;6865;52.552;13.434;2023-03-19T08:07:15;16.57;;;13.00;;
13588;SDS011;6865;52.552;13.434;2023-03-19T08:09:42;18.70;;;13.47;;
13588;SDS011;6865;52.552;13.434;2023-03-19T08:12:09;19.53;;;13.53;;
13588;SDS011;6865;52.552;13.434;2023-03-19T08:14:36;15.27;;;13.40;;
13588;SDS011;6865;52.552;13.434;2023-03-19T08:17:02;15.63;;;13.40;;
13588;SDS011;6865;52.552;13.434;2023-03-19T08:19:29;18.40;;;13.40;;
13588;SDS011;6865;52.552;13.434;2023-03-19T08:21:56;19.97;;;14.17;;
13588;SDS011;6865;52.552;13.434;2023-03-19T08:24:23;15.33;;;12.80;;
13588;SDS011;6865;52.552;13.434;2023-03-19T08:26:50;18.63;;;13.47;;
13588;SDS011;6865;52.552;13.434;2023-03-19T08:29:16;17.90;;;13.17;;
13588;SDS011;6865;52.552;13.434;2023-03-19T08:31:44;16.10;;;12.77;;
13588;SDS011;6865;52.552;13.434;2023-03-19T08:34:11;15.43;;;12.30;;
13588;SDS011;6865;52.552;13.434;2023-03-19T08:36:38;17.37;;;12.33;;
13588;SDS011;6865;52.552;13.434;2023-03-19T08:39:04;21.13;;;14.93;;
13588;SDS011;6865;52.552;13.434;2023-03-19T08:41:31;16.93;;;13.60;;
13588;SDS011;6865;52.552;13.434;2023-03-19T08:43:58;19.97;;;15.03;;
13588;SDS011;6865;52.552;13.434;2023-03-19T08:46:24;21.93;;;15.97;;
13588;SDS011;6865;52.552;13.434;2023-03-19T08:48:52;20.93;;;15.60;;
13588;SDS011;6865;52.552;13.434;2023-03-19T08:51:19;18.23;;;14.77;;
13588;SDS011;6865;52.552;13.434;2023-03-19T08:53:46;18.87;;;13.90;;
13588;SDS011;6865;52.552;13.434;2023-03-19T08:56:12;17.77;;;13.93;;
13588;SDS011;6865;52.552;13.434;2023-03-19T08:58:39;18.97;;;14.37;;
13588;SDS011;6865;52.552;13.434;2023-03-19T09:01:08;19.53;;;13.57;;
13588;SDS011;6865;52.552;13.434;2023-03-19T09:03:37;19.70;;;13.53;;
13588;SDS011;6865;52.552;13.434;2023-03-19T09:06:06;16.90;;;13.03;;
13588;SDS011;6865;52.552;13.434;2023-03-19T09:08:35;16.83;;;11.93;;
13588;SDS011;6865;52.552;13.434;2023-03-19T09:11:03;18.97;;;12.77;;
13588;SDS011;6865;52.552;13.434;2023-03-19T09:13:31;18.47;;;12.83;;
13588;SDS011;6865;52.552;13.434;2023-03-19T09:15:58;17.87;;;13.23;;
13588;SDS011;6865;52.552;13.434;2023-03-19T09:18:24;17.90;;;12.70;;
13588;SDS011;6865;52.552;13.434;2023-03-19T09:20:52;17.00;;;12.80;;
13588;SDS011;6865;52.552;13.434;2023-03-19T09:23:19;16.63;;;12.57;;
13588;SDS011;6865;52.552;13.434;2023-03-19T09:25:47;17.70;;;13.13;;
13588;SDS011;6865;52.552;13.434;2023-03-19T09:28:14;18.57;;;13.20;;
13588;SDS011;6865;52.552;13.434;2023-03-19T09:30:41;16.00;;;11.97;;
13588;SDS011;6865;52.552;13.434;2023-03-19T09:33:08;16.50;;;12.17;;
13588;SDS011;6865;52.552;13.434;2023-03-19T09:35:35;15.63;;;12.00;;
13588;SDS011;6865;52.552;13.434;2023-03-19T09:38:04;16.93;;;12.80;;
13588;SDS011;6865;52.552;13.434;2023-03-19T09:40:35;16.67;;;12.93;;
13588;SDS011;6865;52.552;13.434;2023-03-19T09:45:51;15.27;;;12.07;;
13588;SDS011;6865;52.552;13.434;2023-03-19T09:48:19;13.63;;;10.73;;
13588;SDS011;6865;52.552;13.434;2023-03-19T09:50:57;14.73;;;12.10;;
13588;SDS011;6865;52.552;13.434;2023-03-19T09:53:35;16.00;;;12.47;;
13588;SDS011;6865;52.552;13.434;2023-03-19T09:56:11;16.27;;;12.23;;
13588;SDS011;6865;52.552;13.434;2023-03-19T09:58:40;14.80;;;11.90;;
13588;SDS011;6865;52.552;13.434;2023-03-19T10:01:10;15.93;;;11.97;;
13588;SDS011;6865;52.552;13.434;2023-03-19T10:04:02;15.83;;;11.37;;
13588;SDS011;6865;52.552;13.434;2023-03-19T10:06:43;14.57;;;11.00;;
13588;SDS011;6865;52.552;13.434;2023-03-19T10:09:31;14.30;;;11.60;;
13588;SDS011;6865;52.552;13.434;2023-03-19T10:12:35;17.97;;;10.67;;
13588;SDS011;6865;52.552;13.434;2023-03-19T10:15:14;15.00;;;11.13;;
13588;SDS011;6865;52.552;13.434;2023-03-19T10:17:51;13.83;;;11.30;;
13588;SDS011;6865;52.552;13.434;2023-03-19T10:20:35;14.53;;;11.07;;
13588;SDS011;6865;52.552;13.434;2023-03-19T10:26:07;15.53;;;11.73;;
13588;SDS011;6865;52.552;13.434;2023-03-19T10:28:37;14.27;;;10.40;;
13588;SDS011;6865;52.552;13.434;2023-03-19T10:31:23;13.93;;;10.47;;
13588;SDS011;6865;52.552;13.434;2023-03-19T10:36:36;11.80;;;9.83;;
13588;SDS011;6865;52.552;13.434;2023-03-19T10:39:03;13.40;;;10.53;;
13588;SDS011;6865;52.552;13.434;2023-03-19T10:44:06;14.33;;;10.13;;
13588;SDS011;6865;52.552;13.434;2023-03-19T10:46:39;12.43;;;9.63;;
13588;SDS011;6865;52.552;13.434;2023-03-19T10:49:10;13.57;;;9.13;;
13588;SDS011;6865;52.552;13.434;2023-03-19T10:51:38;14.37;;;9.57;;
13588;SDS011;6865;52.552;13.434;2023-03-19T10:54:16;14.13;;;10.40;;
13588;SDS011;6865;52.552;13.434;2023-03-19T10:56:48;11.93;;;9.00;;
13588;SDS011;6865;52.552;13.434;2023-03-19T11:01:50;13.33;;;9.47;;
13588;SDS011;6865;52.552;13.434;2023-03-19T11:04:26;12.57;;;9.67;;
13588;SDS011;6865;52.552;13.434;2023-03-19T11:06:55;13.80;;;9.30;;
13588;SDS011;6865;52.552;13.434;2023-03-19T11:09:33;11.13;;;8.93;;
13588;SDS011;6865;52.552;13.434;2023-03-19T11:12:04;11.47;;;9.17;;
13588;SDS011;6865;52.552;13.434;2023-03-19T11:14:38;13.97;;;10.33;;
13588;SDS011;6865;52.552;13.434;2023-03-19T11:17:16;12.57;;;9.00;;
13588;SDS011;6865;52.552;13.434;2023-03-19T11:23:00;8.43;;;7.53;;
13588;SDS011;6865;52.552;13.434;2023-03-19T11:25:30;9.60;;;7.60;;
13588;SDS011;6865;52.552;13.434;2023-03-19T11:28:19;11.13;;;7.80;;
13588;SDS011;6865;52.552;13.434;2023-03-19T11:30:57;8.40;;;7.07;;
13588;SDS011;6865;52.552;13.434;2023-03-19T11:36:24;8.33;;;6.87;;
13588;SDS011;6865;52.552;13.434;2023-03-19T11:41:44;9.70;;;7.00;;
13588;SDS011;6865;52.552;13.434;2023-03-19T11:44:38;9.67;;;6.83;;
13588;SDS011;6865;52.552;13.434;2023-03-19T11:50:45;8.90;;;7.10;;
13588;SDS011;6865;52.552;13.434;2023-03-19T11:53:37;8.43;;;6.75;;
13588;SDS011;6865;52.552;13.434;2023-03-19T11:56:20;9.00;;;6.75;;
13588;SDS011;6865;52.552;13.434;2023-03-19T12:05:16;10.90;;;6.50;;
13588;SDS011;6865;52.552;13.434;2023-03-19T12:08:00;9.50;;;6.93;;
13588;SDS011;6865;52.552;13.434;2023-03-19T12:10:35;8.68;;;6.75;;
13588;SDS011;6865;52.552;13.434;2023-03-19T12:13:35;11.88;;;7.53;;
13588;SDS011;6865;52.552;13.434;2023-03-19T12:25:20;9.98;;;7.45;;
13588;SDS011;6865;52.552;13.434;2023-03-19T12:27:59;10.87;;;6.97;;
13588;SDS011;6865;52.552;13.434;2023-03-19T12:30:38;8.67;;;7.03;;
13588;SDS011;6865;52.552;13.434;2023-03-19T12:35:59;9.73;;;7.05;;
13588;SDS011;6865;52.552;13.434;2023-03-19T12:41:08;8.52;;;6.65;;
13588;SDS011;6865;52.552;13.434;2023-03-19T12:43:45;9.40;;;6.95;;
13588;SDS011;6865;52.552;13.434;2023-03-19T12:49:14;9.00;;;6.28;;
13588;SDS011;6865;52.552;13.434;2023-03-19T12:51:59;9.35;;;6.35;;
13588;SDS011;6865;52.552;13.434;2023-03-19T12:54:33;10.88;;;6.72;;
13588;SDS011;6865;52.552;13.434;2023-03-19T12:57:11;7.40;;;6.30;;
13588;SDS011;6865;52.552;13.434;2023-03-19T12:59:49;9.98;;;6.70;;
13588;SDS011;6865;52.552;13.434;2023-03-19T13:02:35;8.32;;;7.07;;
13588;SDS011;6865;52.552;13.434;2023-03-19T13:05:09;10.63;;;6.97;;
13588;SDS011;6865;52.552;13.434;2023-03-19T13:08:05;8.35;;;7.20;;
13588;SDS011;6865;52.552;13.434;2023-03-19T13:10:38;9.30;;;7.22;;
13588;SDS011;6865;52.552;13.434;2023-03-19T13:13:12;8.93;;;7.32;;
13588;SDS011;6865;52.552;13.434;2023-03-19T13:16:05;10.23;;;7.38;;
13588;SDS011;6865;52.552;13.434;2023-03-19T13:21:58;11.52;;;7.97;;
13588;SDS011;6865;52.552;13.434;2023-03-19T13:24:30;10.00;;;7.60;;
13588;SDS011;6865;52.552;13.434;2023-03-19T13:27:01;9.57;;;8.40;;
13588;SDS011;6865;52.552;13.434;2023-03-19T13:29:29;10.48;;;7.90;;
13588;SDS011;6865;52.552;13.434;2023-03-19T13:32:00;11.82;;;7.28;;
13588;SDS011;6865;52.552;13.434;2023-03-19T13:34:47;12.63;;;8.30;;
13588;SDS011;6865;52.552;13.434;2023-03-19T13:37:15;11.07;;;8.13;;
13588;SDS011;6865;52.552;13.434;2023-03-19T13:39:45;10.23;;;7.97;;
13588;SDS011;6865;52.552;13.434;2023-03-19T13:45:25;10.10;;;7.85;;
13588;SDS011;6865;52.552;13.434;2023-03-19T13:47:55;10.60;;;8.23;;
13588;SDS011;6865;52.552;13.434;2023-03-19T13:50:25;12.65;;;7.88;;
13588;SDS011;6865;52.552;13.434;2023-03-19T13:53:10;11.75;;;8.30;;
13588;SDS011;6865;52.552;13.434;2023-03-19T13:55:50;8.80;;;7.03;;
13588;SDS011;6865;52.552;13.434;2023-03-19T13:58:23;10.68;;;7.57;;
13588;SDS011;6865;52.552;13.434;2023-03-19T14:01:11;13.38;;;8.85;;
13588;SDS011;6865;52.552;13.434;2023-03-19T14:03:51;12.60;;;8.15;;
13588;SDS011;6865;52.552;13.434;2023-03-19T14:06:32;12.80;;;8.30;;
13588;SDS011;6865;52.552;13.434;2023-03-19T14:12:10;12.38;;;7.88;;
13588;SDS011;6865;52.552;13.434;2023-03-19T14:14:45;9.93;;;8.20;;
13588;SDS011;6865;52.552;13.434;2023-03-19T14:17:22;12.98;;;8.82;;
13588;SDS011;6865;52.552;13.434;2023-03-19T14:19:51;9.00;;;7.78;;
13588;SDS011;6865;52.552;13.434;2023-03-19T14:24:55;10.60;;;8.10;;
13588;SDS011;6865;52.552;13.434;2023-03-19T14:27:36;10.27;;;7.97;;
13588;SDS011;6865;52.552;13.434;2023-03-19T14:30:17;9.77;;;7.63;;
13588;SDS011;6865;52.552;13.434;2023-03-19T14:32:58;10.57;;;7.82;;
13588;SDS011;6865;52.552;13.434;2023-03-19T14:35:27;10.18;;;7.88;;
13588;SDS011;6865;52.552;13.434;2023-03-19T14:38:01;10.32;;;8.18;;
13588;SDS011;6865;52.552;13.434;2023-03-19T14:40:39;10.40;;;7.68;;
13588;SDS011;6865;52.552;13.434;2023-03-19T14:46:28;10.77;;;8.27;;
13588;SDS011;6865;52.552;13.434;2023-03-19T14:52:22;10.75;;;7.18;;
13588;SDS011;6865;52.552;13.434;2023-03-19T14:55:08;10.77;;;8.20;;
13588;SDS011;6865;52.552;13.434;2023-03-19T14:57:37;12.52;;;7.80;;
13588;SDS011;6865;52.552;13.434;2023-03-19T15:00:05;9.63;;;7.65;;
13588;SDS011;6865;52.552;13.434;2023-03-19T15:02:39;9.60;;;7.32;;
13588;SDS011;6865;52.552;13.434;2023-03-19T15:05:08;9.68;;;6.95;;
13588;SDS011;6865;52.552;13.434;2023-03-19T15:07:46;9.30;;;6.40;;
13588;SDS011;6865;52.552;13.434;2023-03-19T15:10:19;8.52;;;6.88;;
13588;SDS011;6865;52.552;13.434;2023-03-19T15:12:54;11.57;;;7.63;;
13588;SDS011;6865;52.552;13.434;2023-03-19T15:15:38;9.32;;;7.03;;
13588;SDS011;6865;52.552;13.434;2023-03-19T15:18:11;10.05;;;6.45;;
13588;SDS011;6865;52.552;13.434;2023-03-19T15:20:44;7.60;;;5.60;;
13588;SDS011;6865;52.552;13.434;2023-03-19T15:23:27;7.15;;;5.72;;
13588;SDS011;6865;52.552;13.434;2023-03-19T15:25:57;8.63;;;6.00;;
13588;SDS011;6865;52.552;13.434;2023-03-19T15:28:27;7.88;;;5.25;;
13588;SDS011;6865;52.552;13.434;2023-03-19T15:31:01;8.52;;;5.60;;
13588;SDS011;6865;52.552;13.434;2023-03-19T15:33:51;7.57;;;5.80;;
13588;SDS011;6865;52.552;13.434;2023-03-19T15:36:25;6.38;;;5.07;;
13588;SDS011;6865;52.552;13.434;2023-03-19T15:39:00;8.63;;;6.03;;
13588;SDS011;6865;52.552;13.434;2023-03-19T15:41:34;6.85;;;5.70;;
13588;SDS011;6865;52.552;13.434;2023-03-19T15:44:09;11.75;;;6.15;;
13588;SDS011;6865;52.552;13.434;2023-03-19T15:46:46;9.13;;;6.28;;
13588;SDS011;6865;52.552;13.434;2023-03-19T15:49:27;9.82;;;6.40;;
13588;SDS011;6865;52.552;13.434;2023-03-19T15:52:00;8.77;;;6.63;;
13588;SDS011;6865;52.552;13.434;2023-03-19T15:54:30;8.70;;;6.50;;
13588;SDS011;6865;52.552;13.434;2023-03-19T15:56:58;7.15;;;5.90;;
13588;SDS011;6865;52.552;13.434;2023-03-19T15:59:25;8.68;;;6.15;;